sensor_id;sensor_type;location;lat;lon;timestamp;pressure;altitude;pressure_sealevel;temperature;humidity
23446;BME280;11895;48.738;9.320;2023-05-23T00:00:49;98549.72;;;19.37;100.00
23446;BME280;11895;48.738;9.320;2023-05-23T00:03:18;98552.38;;;19.27;100.00
23446;BME280;11895;48.738;9.320;2023-05-23T00:05:49;98548.59;;;19.40;100.00
23446;BME280;11895;48.738;9.320;2023-05-23T00:08:18;98555.31;;;19.36;100.00
23446;BME280;11895;48.738;9.320;2023-05-23T00:18:51;98553.38;;;19.26;100.00
23446;BME280;11895;48.738;9.320;2023-05-23T00:24:46;98560.03;;;19.34;100.00
23446;BME280;11895;48.738;9.320;2023-05-23T00:27:14;98558.72;;;19.49;100.00
23446;BME280;11895;48.738;9.320;2023-05-23T00:43:20;98565.09;;;19.17;100.00
23446;BME280;11895;48.738;9.320;2023-05-23T00:45:49;98567.59;;;19.09;100.00
23446;BME280;11895;48.738;9.320;2023-05-23T00:48:16;98565.00;;;19.08;100.00
23446;BME280;11895;48.738;9.320;2023-05-23T00:54:10;98571.03;;;19.22;100.00
23446;BME280;11895;48.738;9.320;2023-05-23T01:00:08;98575.69;;;19.11;100.00
23446;BME280;11895;48.738;9.320;2023-05-23T01:02:45;98576.00;;;19.17;100.00
23446;BME280;11895;48.738;9.320;2023-05-23T01:15:16;98575.88;;;19.19;100.00
23446;BME280;11895;48.738;9.320;2023-05-23T01:18:00;98577.16;;;19.15;100.00
23446;BME280;11895;48.738;9.320;2023-05-23T01:20:36;98578.34;;;19.22;100.00
23446;BME280;11895;48.738;9.320;2023-05-23T01:23:19;98581.16;;;19.11;100.00
23446;BME280;11895;48.738;9.320;2023-05-23T01:25:56;98579.06;;;19.03;100.00
23446;BME280;11895;48.738;9.320;2023-05-23T01:28:44;98575.78;;;19.09;100.00
23446;BME280;11895;48.738;9.320;2023-05-23T01:31:13;98578.03;;;19.04;100.00
23446;BME280;11895;48.738;9.320;2023-05-23T01:33:43;98581.63;;;19.05;100.00
23446;BME280;11895;48.738;9.320;2023-05-23T01:36:13;98577.94;;;19.06;100.00
23446;BME280;11895;48.738;9.320;2023-05-23T01:38:41;98575.31;;;19.04;100.00
23446;BME280;11895;48.738;9.320;2023-05-23T01:41:09;98576.53;;;19.11;100.00
23446;BME280;11895;48.738;9.320;2023-05-23T01:43:37;98590.84;;;18.71;100.00
23446;BME280;11895;48.738;9.320;2023-05-23T01:46:07;98584.63;;;18.58;100.00
23446;BME280;11895;48.738;9.320;2023-05-23T01:48:36;98587.88;;;18.52;100.00
23446;BME280;11895;48.738;9.320;2023-05-23T01:51:05;98589.34;;;18.45;100.00
23446;BME280;11895;48.738;9.320;2023-05-23T01:53:35;98595.06;;;18.53;100.00
23446;BME280;11895;48.738;9.320;2023-05-23T01:56:03;98592.66;;;18.60;100.00
23446;BME280;11895;48.738;9.320;2023-05-23T01:58:31;98595.03;;;18.64;100.00
23446;BME280;11895;48.738;9.320;2023-05-23T02:00:59;98582.63;;;18.60;100.00
23446;BME280;11895;48.738;9.320;2023-05-23T02:03:27;98594.78;;;18.67;100.00
23446;BME280;11895;48.738;9.320;2023-05-23T02:05:55;98594.28;;;18.62;100.00
23446;BME280;11895;48.738;9.320;2023-05-23T02:08:23;98599.00;;;18.60;100.00
23446;BME280;11895;48.738;9.320;2023-05-23T02:10:51;98593.28;;;18.63;100.00
23446;BME280;11895;48.738;9.320;2023-05-23T02:13:19;98585.72;;;18.56;100.00
23446;BME280;11895;48.738;9.320;2023-05-23T02:15:47;98588.94;;;18.61;100.00
23446;BME280;11895;48.738;9.320;2023-05-23T02:18:16;98588.06;;;18.60;100.00
23446;BME280;11895;48.738;9.320;2023-05-23T02:20:44;98585.13;;;18.52;100.00
23446;BME280;11895;48.738;9.320;2023-05-23T02:23:15;98589.69;;;18.52;100.00
23446;BME280;11895;48.738;9.320;2023-05-23T02:25:43;98594.44;;;18.49;100.00
23446;BME280;11895;48.738;9.320;2023-05-23T02:28:11;98586.38;;;18.48;100.00
23446;BME280;11895;48.738;9.320;2023-05-23T02:30:39;98584.00;;;18.55;100.00
23446;BME280;11895;48.738;9.320;2023-05-23T02:33:07;98599.16;;;18.47;100.00
23446;BME280;11895;48.738;9.320;2023-05-23T02:35:35;98593.31;;;18.41;100.00
23446;BME280;11895;48.738;9.320;2023-05-23T02:38:03;98593.19;;;18.54;100.00
23446;BME280;11895;48.738;9.320;2023-05-23T02:40:31;98593.09;;;18.44;100.00
23446;BME280;11895;48.738;9.320;2023-05-23T02:43:01;98593.81;;;18.46;100.00
23446;BME280;11895;48.738;9.320;2023-05-23T02:45:30;98595.16;;;18.52;100.00
23446;BME280;11895;48.738;9.320;2023-05-23T02:47:58;98597.41;;;18.46;100.00
23446;BME280;11895;48.738;9.320;2023-05-23T02:50:26;98602.03;;;18.23;100.00
23446;BME280;11895;48.738;9.320;2023-05-23T02:52:55;98608.06;;;18.27;100.00
23446;BME280;11895;48.738;9.320;2023-05-23T02:55:23;98606.47;;;18.36;100.00
23446;BME280;11895;48.738;9.320;2023-05-23T02:57:51;98605.72;;;18.45;100.00
23446;BME280;11895;48.738;9.320;2023-05-23T03:00:19;98606.69;;;18.55;100.00
23446;BME280;11895;48.738;9.320;2023-05-23T03:02:52;98607.94;;;18.62;100.00
23446;BME280;11895;48.738;9.320;2023-05-23T03:05:20;98621.09;;;18.68;100.00
23446;BME280;11895;48.738;9.320;2023-05-23T03:07:48;98616.13;;;18.73;100.00
23446;BME280;11895;48.738;9.320;2023-05-23T03:10:18;98615.75;;;18.78;100.00
23446;BME280;11895;48.738;9.320;2023-05-23T03:12:50;98613.88;;;18.79;100.00
23446;BME280;11895;48.738;9.320;2023-05-23T03:15:18;98613.34;;;18.85;100.00
23446;BME280;11895;48.738;9.320;2023-05-23T03:17:52;98616.94;;;18.96;100.00
23446;BME280;11895;48.738;9.320;2023-05-23T03:20:20;98608.84;;;18.95;100.00
23446;BME280;11895;48.738;9.320;2023-05-23T03:22:48;98614.97;;;18.87;100.00
23446;BME280;11895;48.738;9.320;2023-05-23T03:25:17;98616.06;;;18.96;100.00
23446;BME280;11895;48.738;9.320;2023-05-23T03:27:46;98619.75;;;18.95;100.00
23446;BME280;11895;48.738;9.320;2023-05-23T03:30:13;98626.97;;;18.96;100.00
23446;BME280;11895;48.738;9.320;2023-05-23T03:32:41;98620.38;;;18.98;100.00
23446;BME280;11895;48.738;9.320;2023-05-23T03:35:12;98623.50;;;18.94;100.00
23446;BME280;11895;48.738;9.320;2023-05-23T03:37:42;98623.97;;;18.99;100.00
23446;BME280;11895;48.738;9.320;2023-05-23T03:40:10;98622.47;;;19.06;100.00
23446;BME280;11895;48.738;9.320;2023-05-23T03:42:39;98626.69;;;19.10;100.00
23446;BME280;11895;48.738;9.320;2023-05-23T03:45:08;98631.63;;;19.16;100.00
23446;BME280;11895;48.738;9.320;2023-05-23T03:47:36;98621.19;;;19.21;100.00
23446;BME280;11895;48.738;9.320;2023-05-23T03:50:05;98628.38;;;19.22;100.00
23446;BME280;11895;48.738;9.320;2023-05-23T03:52:35;98622.38;;;19.29;100.00
23446;BME280;11895;48.738;9.320;2023-05-23T03:55:03;98624.13;;;19.30;100.00
23446;BME280;11895;48.738;9.320;2023-05-23T03:57:32;98628.50;;;18.78;100.00
23446;BME280;11895;48.738;9.320;2023-05-23T04:00:00;98626.59;;;18.89;100.00
23446;BME280;11895;48.738;9.320;2023-05-23T04:02:29;98619.63;;;19.08;100.00
23446;BME280;11895;48.738;9.320;2023-05-23T04:04:58;98614.94;;;19.31;100.00
23446;BME280;11895;48.738;9.320;2023-05-23T04:07:27;98618.91;;;19.26;100.00
23446;BME280;11895;48.738;9.320;2023-05-23T04:09:55;98630.44;;;18.98;100.00
23446;BME280;11895;48.738;9.320;2023-05-23T04:12:22;98621.19;;;19.21;100.00
23446;BME280;11895;48.738;9.320;2023-05-23T04:14:53;98623.69;;;19.45;100.00
23446;BME280;11895;48.738;9.320;2023-05-23T04:17:27;98627.91;;;19.38;100.00
23446;BME280;11895;48.738;9.320;2023-05-23T04:19:57;98624.34;;;19.59;100.00
23446;BME280;11895;48.738;9.320;2023-05-23T04:22:25;98624.91;;;19.73;100.00
23446;BME280;11895;48.738;9.320;2023-05-23T04:24:54;98625.97;;;19.82;100.00
23446;BME280;11895;48.738;9.320;2023-05-23T04:27:24;98622.94;;;20.06;100.00
23446;BME280;11895;48.738;9.320;2023-05-23T04:29:53;98621.84;;;20.18;100.00
23446;BME280;11895;48.738;9.320;2023-05-23T04:32:23;98621.75;;;20.29;100.00
23446;BME280;11895;48.738;9.320;2023-05-23T04:34:50;98628.28;;;20.38;100.00
23446;BME280;11895;48.738;9.320;2023-05-23T04:37:19;98633.91;;;20.37;100.00
23446;BME280;11895;48.738;9.320;2023-05-23T04:39:48;98634.94;;;20.45;100.00
23446;BME280;11895;48.738;9.320;2023-05-23T04:42:31;98628.66;;;20.54;100.00
23446;BME280;11895;48.738;9.320;2023-05-23T04:45:12;98635.91;;;20.65;100.00
23446;BME280;11895;48.738;9.320;2023-05-23T04:47:57;98639.38;;;20.77;100.00
23446;BME280;11895;48.738;9.320;2023-05-23T04:50:48;98640.44;;;20.86;100.00
23446;BME280;11895;48.738;9.320;2023-05-23T04:53:17;98640.72;;;20.92;100.00
23446;BME280;11895;48.738;9.320;2023-05-23T04:55:45;98641.28;;;20.86;100.00
23446;BME280;11895;48.738;9.320;2023-05-23T04:58:16;98648.63;;;20.86;100.00
23446;BME280;11895;48.738;9.320;2023-05-23T05:00:43;98645.56;;;20.79;100.00
23446;BME280;11895;48.738;9.320;2023-05-23T05:03:13;98650.38;;;20.87;100.00
23446;BME280;11895;48.738;9.320;2023-05-23T05:05:43;98649.94;;;20.91;100.00
23446;BME280;11895;48.738;9.320;2023-05-23T05:08:11;98654.81;;;20.88;100.00
23446;BME280;11895;48.738;9.320;2023-05-23T05:10:40;98660.19;;;20.89;100.00
23446;BME280;11895;48.738;9.320;2023-05-23T05:13:10;98664.47;;;20.82;100.00
23446;BME280;11895;48.738;9.320;2023-05-23T05:15:44;98663.47;;;20.93;100.00
23446;BME280;11895;48.738;9.320;2023-05-23T05:18:12;98656.03;;;21.04;100.00
23446;BME280;11895;48.738;9.320;2023-05-23T05:20:41;98658.44;;;20.98;100.00
23446;BME280;11895;48.738;9.320;2023-05-23T05:23:09;98654.78;;;21.28;100.00
23446;BME280;11895;48.738;9.320;2023-05-23T05:25:42;98664.16;;;21.54;100.00
23446;BME280;11895;48.738;9.320;2023-05-23T05:28:11;98667.50;;;21.58;100.00
23446;BME280;11895;48.738;9.320;2023-05-23T05:30:44;98669.31;;;21.28;100.00
23446;BME280;11895;48.738;9.320;2023-05-23T05:33:12;98669.97;;;20.92;100.00
23446;BME280;11895;48.738;9.320;2023-05-23T05:35:41;98667.13;;;21.22;100.00
23446;BME280;11895;48.738;9.320;2023-05-23T05:38:09;98672.34;;;21.25;100.00
23446;BME280;11895;48.738;9.320;2023-05-23T05:40:37;98665.47;;;21.41;100.00
23446;BME280;11895;48.738;9.320;2023-05-23T05:43:05;98669.94;;;21.51;100.00
23446;BME280;11895;48.738;9.320;2023-05-23T05:45:33;98680.91;;;21.61;100.00
23446;BME280;11895;48.738;9.320;2023-05-23T05:48:03;98673.84;;;21.59;100.00
23446;BME280;11895;48.738;9.320;2023-05-23T05:50:31;98681.34;;;21.47;100.00
23446;BME280;11895;48.738;9.320;2023-05-23T05:52:58;98681.56;;;21.24;100.00
23446;BME280;11895;48.738;9.320;2023-05-23T05:55:25;98673.84;;;21.49;100.00
23446;BME280;11895;48.738;9.320;2023-05-23T05:57:54;98683.06;;;21.67;100.00
23446;BME280;11895;48.738;9.320;2023-05-23T06:00:27;98679.03;;;21.91;100.00
23446;BME280;11895;48.738;9.320;2023-05-23T06:02:56;98675.25;;;21.92;100.00
23446;BME280;11895;48.738;9.320;2023-05-23T06:05:38;98673.50;;;22.10;100.00
23446;BME280;11895;48.738;9.320;2023-05-23T06:08:06;98678.13;;;22.00;100.00
23446;BME280;11895;48.738;9.320;2023-05-23T06:10:37;98681.03;;;21.69;100.00
23446;BME280;11895;48.738;9.320;2023-05-23T06:13:06;98676.97;;;22.22;100.00
23446;BME280;11895;48.738;9.320;2023-05-23T06:15:35;98679.78;;;22.49;100.00
23446;BME280;11895;48.738;9.320;2023-05-23T06:18:02;98681.25;;;22.71;100.00
23446;BME280;11895;48.738;9.320;2023-05-23T06:20:31;98681.59;;;22.96;100.00
23446;BME280;11895;48.738;9.320;2023-05-23T06:23:01;98682.97;;;23.09;100.00
23446;BME280;11895;48.738;9.320;2023-05-23T06:25:31;98689.31;;;22.82;100.00
23446;BME280;11895;48.738;9.320;2023-05-23T06:27:58;98686.56;;;22.82;100.00
23446;BME280;11895;48.738;9.320;2023-05-23T06:30:26;98688.34;;;22.74;100.00
23446;BME280;11895;48.738;9.320;2023-05-23T06:32:55;98683.72;;;22.74;100.00
23446;BME280;11895;48.738;9.320;2023-05-23T06:35:24;98689.84;;;22.96;100.00
23446;BME280;11895;48.738;9.320;2023-05-23T06:37:52;98695.56;;;23.12;100.00
23446;BME280;11895;48.738;9.320;2023-05-23T06:40:19;98698.81;;;22.98;100.00
23446;BME280;11895;48.738;9.320;2023-05-23T06:42:47;98697.84;;;22.79;100.00
23446;BME280;11895;48.738;9.320;2023-05-23T06:45:32;98703.66;;;22.29;100.00
23446;BME280;11895;48.738;9.320;2023-05-23T06:48:01;98700.06;;;22.66;100.00
23446;BME280;11895;48.738;9.320;2023-05-23T06:50:30;98706.34;;;22.86;100.00
23446;BME280;11895;48.738;9.320;2023-05-23T06:52:57;98717.72;;;23.01;100.00
23446;BME280;11895;48.738;9.320;2023-05-23T06:55:25;98707.69;;;23.09;100.00
23446;BME280;11895;48.738;9.320;2023-05-23T06:57:55;98720.34;;;23.02;100.00
23446;BME280;11895;48.738;9.320;2023-05-23T07:00:22;98709.75;;;23.25;100.00
23446;BME280;11895;48.738;9.320;2023-05-23T07:03:02;98711.91;;;23.31;100.00
23446;BME280;11895;48.738;9.320;2023-05-23T07:05:30;98717.00;;;23.26;100.00
23446;BME280;11895;48.738;9.320;2023-05-23T07:07:59;98715.81;;;23.29;100.00
23446;BME280;11895;48.738;9.320;2023-05-23T07:10:27;98716.69;;;23.29;100.00
23446;BME280;11895;48.738;9.320;2023-05-23T07:13:02;98732.75;;;23.06;100.00
23446;BME280;11895;48.738;9.320;2023-05-23T07:15:30;98727.59;;;22.94;100.00
23446;BME280;11895;48.738;9.320;2023-05-23T07:18:07;98735.63;;;23.05;100.00
23446;BME280;11895;48.738;9.320;2023-05-23T07:20:35;98740.66;;;23.09;100.00
23446;BME280;11895;48.738;9.320;2023-05-23T07:23:36;98736.34;;;22.70;100.00
23446;BME280;11895;48.738;9.320;2023-05-23T07:26:04;98739.28;;;22.49;100.00
23446;BME280;11895;48.738;9.320;2023-05-23T07:28:40;98739.28;;;22.58;100.00
23446;BME280;11895;48.738;9.320;2023-05-23T07:31:07;98743.06;;;22.28;100.00
23446;BME280;11895;48.738;9.320;2023-05-23T07:33:37;98734.22;;;22.54;100.00
23446;BME280;11895;48.738;9.320;2023-05-23T07:36:06;98741.56;;;22.63;100.00
23446;BME280;11895;48.738;9.320;2023-05-23T07:38:33;98749.25;;;22.50;100.00
23446;BME280;11895;48.738;9.320;2023-05-23T07:41:00;98750.88;;;22.23;100.00
23446;BME280;11895;48.738;9.320;2023-05-23T07:43:38;98748.00;;;21.96;100.00
23446;BME280;11895;48.738;9.320;2023-05-23T07:46:07;98760.72;;;22.16;100.00
23446;BME280;11895;48.738;9.320;2023-05-23T07:48:35;98759.84;;;22.25;100.00
23446;BME280;11895;48.738;9.320;2023-05-23T07:51:03;98767.03;;;22.46;100.00
23446;BME280;11895;48.738;9.320;2023-05-23T07:53:32;98762.72;;;22.14;100.00
23446;BME280;11895;48.738;9.320;2023-05-23T07:56:02;98760.13;;;22.03;100.00
23446;BME280;11895;48.738;9.320;2023-05-23T07:58:34;98756.06;;;22.07;100.00
23446;BME280;11895;48.738;9.320;2023-05-23T08:01:02;98762.84;;;22.42;100.00
23446;BME280;11895;48.738;9.320;2023-05-23T08:03:54;98759.75;;;22.64;100.00
23446;BME280;11895;48.738;9.320;2023-05-23T08:06:31;98768.69;;;22.76;100.00
23446;BME280;11895;48.738;9.320;2023-05-23T08:09:03;98771.34;;;22.58;100.00
23446;BME280;11895;48.738;9.320;2023-05-23T08:11:36;98774.56;;;21.86;100.00
23446;BME280;11895;48.738;9.320;2023-05-23T08:14:05;98769.09;;;22.05;100.00
23446;BME280;11895;48.738;9.320;2023-05-23T08:16:36;98766.47;;;22.32;100.00
23446;BME280;11895;48.738;9.320;2023-05-23T08:19:09;98772.69;;;22.81;100.00
23446;BME280;11895;48.738;9.320;2023-05-23T08:21:37;98781.44;;;23.42;100.00
23446;BME280;11895;48.738;9.320;2023-05-23T08:24:05;98772.41;;;23.95;100.00
23446;BME280;11895;48.738;9.320;2023-05-23T08:26:35;98781.28;;;23.71;100.00
23446;BME280;11895;48.738;9.320;2023-05-23T08:29:05;98784.19;;;23.69;100.00
23446;BME280;11895;48.738;9.320;2023-05-23T08:31:32;98790.91;;;23.02;100.00
23446;BME280;11895;48.738;9.320;2023-05-23T08:34:03;98796.38;;;23.29;100.00
23446;BME280;11895;48.738;9.320;2023-05-23T08:36:33;98790.19;;;23.55;100.00
23446;BME280;11895;48.738;9.320;2023-05-23T08:39:03;98786.00;;;23.51;100.00
23446;BME280;11895;48.738;9.320;2023-05-23T08:41:35;98808.72;;;22.78;100.00
23446;BME280;11895;48.738;9.320;2023-05-23T08:44:07;98800.44;;;22.98;100.00
23446;BME280;11895;48.738;9.320;2023-05-23T08:46:46;98800.25;;;23.09;100.00
23446;BME280;11895;48.738;9.320;2023-05-23T08:49:33;98799.03;;;22.74;100.00
23446;BME280;11895;48.738;9.320;2023-05-23T08:52:02;98801.41;;;22.50;100.00
23446;BME280;11895;48.738;9.320;2023-05-23T08:54:33;98808.31;;;22.73;100.00
23446;BME280;11895;48.738;9.320;2023-05-23T08:57:03;98819.59;;;22.51;100.00
23446;BME280;11895;48.738;9.320;2023-05-23T08:59:38;98809.19;;;22.64;100.00
23446;BME280;11895;48.738;9.320;2023-05-23T09:02:09;98812.47;;;23.24;100.00
23446;BME280;11895;48.738;9.320;2023-05-23T09:04:38;98814.91;;;23.82;100.00
23446;BME280;11895;48.738;9.320;2023-05-23T09:07:15;98827.63;;;23.66;100.00
23446;BME280;11895;48.738;9.320;2023-05-23T09:09:43;98831.66;;;23.71;100.00
23446;BME280;11895;48.738;9.320;2023-05-23T09:12:13;98814.63;;;24.03;100.00
23446;BME280;11895;48.738;9.320;2023-05-23T09:14:43;98825.13;;;23.72;100.00
23446;BME280;11895;48.738;9.320;2023-05-23T09:17:17;98822.94;;;24.29;100.00
23446;BME280;11895;48.738;9.320;2023-05-23T09:19:46;98826.66;;;24.20;100.00
23446;BME280;11895;48.738;9.320;2023-05-23T09:22:25;98829.88;;;24.33;100.00
23446;BME280;11895;48.738;9.320;2023-05-23T09:25:00;98828.63;;;23.00;100.00
23446;BME280;11895;48.738;9.320;2023-05-23T09:27:28;98834.44;;;23.24;100.00
23446;BME280;11895;48.738;9.320;2023-05-23T09:30:04;98822.72;;;24.05;100.00
23446;BME280;11895;48.738;9.320;2023-05-23T09:32:32;98831.91;;;24.67;100.00
23446;BME280;11895;48.738;9.320;2023-05-23T09:35:05;98839.75;;;25.32;92.76
23446;BME280;11895;48.738;9.320;2023-05-23T09:40:10;98835.94;;;26.18;82.70
23446;BME280;11895;48.738;9.320;2023-05-23T09:42:50;98845.72;;;25.87;83.39
23446;BME280;11895;48.738;9.320;2023-05-23T09:45:18;98829.25;;;24.57;92.69
23446;BME280;11895;48.738;9.320;2023-05-23T09:47:51;98838.03;;;25.31;91.08
23446;BME280;11895;48.738;9.320;2023-05-23T09:50:19;98847.31;;;25.64;88.03
23446;BME280;11895;48.738;9.320;2023-05-23T09:52:47;98840.63;;;25.06;90.20
23446;BME280;11895;48.738;9.320;2023-05-23T09:55:17;98847.22;;;24.87;88.96
23446;BME280;11895;48.738;9.320;2023-05-23T09:57:48;98841.06;;;25.54;87.92
23446;BME280;11895;48.738;9.320;2023-05-23T10:00:23;98838.91;;;25.74;83.37
23446;BME280;11895;48.738;9.320;2023-05-23T10:03:00;98847.66;;;25.27;85.15
23446;BME280;11895;48.738;9.320;2023-05-23T10:05:44;98854.00;;;24.75;91.52
23446;BME280;11895;48.738;9.320;2023-05-23T10:08:26;98850.22;;;25.28;87.12
23446;BME280;11895;48.738;9.320;2023-05-23T10:13:45;98844.06;;;24.82;93.12
23446;BME280;11895;48.738;9.320;2023-05-23T10:16:18;98843.16;;;25.00;90.66
23446;BME280;11895;48.738;9.320;2023-05-23T10:18:59;98841.41;;;25.17;86.07
23446;BME280;11895;48.738;9.320;2023-05-23T10:22:02;98845.59;;;24.77;92.41
23446;BME280;11895;48.738;9.320;2023-05-23T10:24:33;98843.56;;;23.90;95.60
23446;BME280;11895;48.738;9.320;2023-05-23T10:27:03;98849.06;;;24.61;91.26
23446;BME280;11895;48.738;9.320;2023-05-23T10:29:31;98844.81;;;24.93;89.07
23446;BME280;11895;48.738;9.320;2023-05-23T10:32:04;98845.72;;;25.19;86.00
23446;BME280;11895;48.738;9.320;2023-05-23T10:37:31;98850.00;;;25.48;80.28
23446;BME280;11895;48.738;9.320;2023-05-23T10:46:14;98849.53;;;25.26;80.35
23446;BME280;11895;48.738;9.320;2023-05-23T10:48:43;98849.31;;;25.46;77.86
23446;BME280;11895;48.738;9.320;2023-05-23T10:51:13;98843.22;;;25.34;78.00
23446;BME280;11895;48.738;9.320;2023-05-23T10:53:46;98835.25;;;25.65;77.19
23446;BME280;11895;48.738;9.320;2023-05-23T10:56:22;98837.44;;;25.53;76.93
23446;BME280;11895;48.738;9.320;2023-05-23T10:58:55;98840.06;;;24.77;84.26
23446;BME280;11895;48.738;9.320;2023-05-23T11:01:23;98850.34;;;24.93;84.35
23446;BME280;11895;48.738;9.320;2023-05-23T11:03:52;98842.91;;;25.11;82.42
23446;BME280;11895;48.738;9.320;2023-05-23T11:06:42;98846.41;;;25.21;76.70
23446;BME280;11895;48.738;9.320;2023-05-23T11:09:18;98840.97;;;25.29;76.74
23446;BME280;11895;48.738;9.320;2023-05-23T11:11:50;98844.16;;;25.51;73.56
23446;BME280;11895;48.738;9.320;2023-05-23T11:19:39;98849.38;;;25.02;72.81
23446;BME280;11895;48.738;9.320;2023-05-23T11:22:27;98850.00;;;25.48;71.13
23446;BME280;11895;48.738;9.320;2023-05-23T11:24:58;98851.28;;;25.27;73.87
23446;BME280;11895;48.738;9.320;2023-05-23T11:27:39;98853.09;;;25.53;71.00
23446;BME280;11895;48.738;9.320;2023-05-23T11:30:13;98854.34;;;25.93;68.75
23446;BME280;11895;48.738;9.320;2023-05-23T11:32:50;98850.97;;;26.39;67.16
23446;BME280;11895;48.738;9.320;2023-05-23T11:35:20;98858.59;;;26.86;59.22
23446;BME280;11895;48.738;9.320;2023-05-23T11:37:48;98857.09;;;25.93;62.08
23446;BME280;11895;48.738;9.320;2023-05-23T11:40:39;98846.72;;;25.78;67.59
23446;BME280;11895;48.738;9.320;2023-05-23T11:43:14;98848.03;;;26.41;61.35
23446;BME280;11895;48.738;9.320;2023-05-23T11:45:45;98853.69;;;26.15;60.65
23446;BME280;11895;48.738;9.320;2023-05-23T11:48:15;98844.75;;;26.29;59.62
23446;BME280;11895;48.738;9.320;2023-05-23T11:53:17;98849.66;;;25.51;59.69
23446;BME280;11895;48.738;9.320;2023-05-23T11:55:51;98844.41;;;26.32;58.66
23446;BME280;11895;48.738;9.320;2023-05-23T11:58:25;98834.44;;;26.72;59.75
23446;BME280;11895;48.738;9.320;2023-05-23T12:01:00;98838.69;;;27.79;52.38
23446;BME280;11895;48.738;9.320;2023-05-23T12:03:30;98838.47;;;28.43;46.45
23446;BME280;11895;48.738;9.320;2023-05-23T12:05:59;98840.78;;;28.39;46.30
23446;BME280;11895;48.738;9.320;2023-05-23T12:08:28;98840.63;;;28.56;46.37
23446;BME280;11895;48.738;9.320;2023-05-23T12:10:58;98844.06;;;28.81;46.28
23446;BME280;11895;48.738;9.320;2023-05-23T12:13:30;98834.38;;;28.77;46.47
23446;BME280;11895;48.738;9.320;2023-05-23T12:16:00;98854.44;;;28.64;46.90
23446;BME280;11895;48.738;9.320;2023-05-23T12:18:31;98843.41;;;28.93;48.02
23446;BME280;11895;48.738;9.320;2023-05-23T12:21:02;98837.88;;;28.93;45.84
23446;BME280;11895;48.738;9.320;2023-05-23T12:23:34;98842.72;;;29.29;44.41
23446;BME280;11895;48.738;9.320;2023-05-23T12:26:06;98841.09;;;28.82;46.64
23446;BME280;11895;48.738;9.320;2023-05-23T12:28:41;98841.59;;;27.38;49.75
23446;BME280;11895;48.738;9.320;2023-05-23T12:33:44;98838.69;;;27.24;50.64
23446;BME280;11895;48.738;9.320;2023-05-23T12:36:15;98828.63;;;27.86;48.21
23446;BME280;11895;48.738;9.320;2023-05-23T12:38:48;98830.00;;;29.35;42.14
23446;BME280;11895;48.738;9.320;2023-05-23T12:41:17;98827.22;;;29.20;41.03
23446;BME280;11895;48.738;9.320;2023-05-23T12:43:53;98826.94;;;29.30;42.20
23446;BME280;11895;48.738;9.320;2023-05-23T12:46:24;98825.69;;;29.03;41.43
23446;BME280;11895;48.738;9.320;2023-05-23T12:48:53;98825.97;;;30.33;39.86
23446;BME280;11895;48.738;9.320;2023-05-23T12:51:21;98811.31;;;32.40;35.30
23446;BME280;11895;48.738;9.320;2023-05-23T12:53:52;98809.97;;;31.34;35.93
23446;BME280;11895;48.738;9.320;2023-05-23T12:56:21;98804.53;;;32.08;35.09
23446;BME280;11895;48.738;9.320;2023-05-23T12:58:49;98813.16;;;32.20;33.70
23446;BME280;11895;48.738;9.320;2023-05-23T13:01:17;98808.25;;;31.74;35.63
23446;BME280;11895;48.738;9.320;2023-05-23T13:03:49;98799.09;;;32.68;34.53
23446;BME280;11895;48.738;9.320;2023-05-23T13:06:17;98810.56;;;32.18;33.46
23446;BME280;11895;48.738;9.320;2023-05-23T13:08:45;98814.97;;;31.86;35.44
23446;BME280;11895;48.738;9.320;2023-05-23T13:11:13;98814.69;;;31.33;36.09
23446;BME280;11895;48.738;9.320;2023-05-23T13:13:41;98807.88;;;33.31;33.91
23446;BME280;11895;48.738;9.320;2023-05-23T13:16:08;98809.91;;;33.95;32.20
23446;BME280;11895;48.738;9.320;2023-05-23T13:18:36;98802.06;;;35.06;29.70
23446;BME280;11895;48.738;9.320;2023-05-23T13:21:04;98799.03;;;34.82;30.64
23446;BME280;11895;48.738;9.320;2023-05-23T13:23:33;98804.06;;;34.35;30.66
23446;BME280;11895;48.738;9.320;2023-05-23T13:26:02;98814.38;;;35.85;28.58
23446;BME280;11895;48.738;9.320;2023-05-23T13:28:30;98810.16;;;36.72;28.30
23446;BME280;11895;48.738;9.320;2023-05-23T13:30:58;98813.22;;;35.74;28.80
23446;BME280;11895;48.738;9.320;2023-05-23T13:33:25;98811.78;;;35.03;28.21
23446;BME280;11895;48.738;9.320;2023-05-23T13:35:53;98805.22;;;33.76;30.34
23446;BME280;11895;48.738;9.320;2023-05-23T13:38:22;98806.19;;;33.10;31.33
23446;BME280;11895;48.738;9.320;2023-05-23T13:40:53;98801.72;;;31.19;35.24
23446;BME280;11895;48.738;9.320;2023-05-23T13:43:21;98813.59;;;31.06;35.86
23446;BME280;11895;48.738;9.320;2023-05-23T13:45:48;98807.75;;;30.30;37.88
23446;BME280;11895;48.738;9.320;2023-05-23T13:48:16;98809.22;;;30.11;37.47
23446;BME280;11895;48.738;9.320;2023-05-23T13:50:44;98813.63;;;28.96;39.85
23446;BME280;11895;48.738;9.320;2023-05-23T13:53:12;98810.66;;;28.36;42.59
23446;BME280;11895;48.738;9.320;2023-05-23T13:55:43;98824.25;;;28.46;42.23
23446;BME280;11895;48.738;9.320;2023-05-23T13:58:14;98824.22;;;28.23;44.48
23446;BME280;11895;48.738;9.320;2023-05-23T14:00:42;98822.25;;;27.30;46.01
23446;BME280;11895;48.738;9.320;2023-05-23T14:03:11;98813.69;;;27.09;47.94
23446;BME280;11895;48.738;9.320;2023-05-23T14:05:38;98802.69;;;26.60;50.87
23446;BME280;11895;48.738;9.320;2023-05-23T14:08:06;98812.47;;;27.03;49.59
23446;BME280;11895;48.738;9.320;2023-05-23T14:10:33;98812.31;;;26.31;54.52
23446;BME280;11895;48.738;9.320;2023-05-23T14:13:00;98811.63;;;26.54;54.68
23446;BME280;11895;48.738;9.320;2023-05-23T14:15:28;98807.78;;;26.96;52.08
23446;BME280;11895;48.738;9.320;2023-05-23T14:17:56;98811.91;;;27.16;51.18